PWSweather.com
Personal Weather Stations
Station Observations
KMNMADEL2
West Of High School, Madelia, MN 56062

West Of High SchoolMadelia, MN 56062

Lat: 44.04636, Lon: -94.4163437

Elevation: 1006

Station Type: Wireless Davis Instruments Vantage Pro2 Plus

http://www.madeliasliveweather.com/

Latest ConditionsUpdated 7:35:01 PM CDT Sunday, Mar 26, 2017
Currently Today's Max Today's Min Today's Average
Temperature 41.5°F5.3°C 43.2°F6.2°C 36.7°F2.6°C 39.3°F4.1°C
Dew Point 38.5°F3.6°C 39.6°F4.2°C 34.3°F1.3°C 36.6°F2.6°C
Winds 1.0 mph NW1.6 kmh NW 8.0 mph N12.9 kmh N - 2.1 mph 3.4 kmh
Wind Gusts 6.0 mph9.7 kmh 11.0 mph17.7 kmh - -
Humidity 89% 91% 86% 90%
Pressure 29.93 in1013.5 mb 30.00 in1015.9 mb 29.91 in1012.9 mb -
Hour Temp Dew Point Humidity Winds Wind Gusts Pressure Precip Precip Rate Daily Precip Total
07:35 PM 41.5°F5.3°C 38.5°F3.6°C 89% 1.0 mph NW1.6 kmh NW 6.0 mph9.7 kmh 29.93 in1013.5 mb 0.00 in0.0 mm 0.00 in0.0 mm 0.06 in1.5 mm
07:30 PM 41.5°F5.3°C 38.5°F3.6°C 89% 2.0 mph ENE3.2 kmh ENE 6.0 mph9.7 kmh 29.93 in1013.5 mb 0.00 in0.0 mm 0.00 in0.0 mm 0.06 in1.5 mm
07:25 PM 41.6°F5.3°C 38.6°F3.7°C 89% 2.0 mph NE3.2 kmh NE 2.0 mph3.2 kmh 29.93 in1013.5 mb 0.00 in0.0 mm 0.00 in0.0 mm 0.06 in1.5 mm
07:20 PM 41.7°F5.4°C 38.4°F3.6°C 88% Calm Calm 6.0 mph9.7 kmh 29.93 in1013.5 mb 0.00 in0.0 mm 0.00 in0.0 mm 0.06 in1.5 mm
07:15 PM 41.9°F5.5°C 38.6°F3.7°C 88% 3.0 mph NNE4.8 kmh NNE 6.0 mph9.7 kmh 29.93 in1013.5 mb 0.00 in0.0 mm 0.00 in0.0 mm 0.06 in1.5 mm
07:10 PM 41.9°F5.5°C 38.6°F3.7°C 88% 5.0 mph NNW8.0 kmh NNW 6.0 mph9.7 kmh 29.93 in1013.5 mb 0.00 in0.0 mm 0.00 in0.0 mm 0.06 in1.5 mm
07:05 PM 42.0°F5.6°C 38.7°F3.7°C 88% 1.0 mph N1.6 kmh N 6.0 mph9.7 kmh 29.93 in1013.5 mb 0.00 in0.0 mm 0.00 in0.0 mm 0.06 in1.5 mm
07:00 PM 42.1°F5.6°C 38.8°F3.8°C 88% 2.0 mph N3.2 kmh N 4.0 mph6.4 kmh 29.93 in1013.5 mb 0.00 in0.0 mm 0.00 in0.0 mm 0.06 in1.5 mm
06:55 PM 42.1°F5.6°C 38.8°F3.8°C 88% 1.0 mph NNW1.6 kmh NNW 3.0 mph4.8 kmh 29.93 in1013.5 mb 0.00 in0.0 mm 0.00 in0.0 mm 0.06 in1.5 mm
06:50 PM 42.1°F5.6°C 38.8°F3.8°C 88% 3.0 mph N4.8 kmh N 7.0 mph11.3 kmh 29.93 in1013.5 mb 0.00 in0.0 mm 0.00 in0.0 mm 0.06 in1.5 mm
06:45 PM 42.2°F5.7°C 38.9°F3.8°C 88% 2.0 mph NNE3.2 kmh NNE 6.0 mph9.7 kmh 29.93 in1013.5 mb 0.00 in0.0 mm 0.00 in0.0 mm 0.06 in1.5 mm
06:40 PM 42.3°F5.7°C 39.0°F3.9°C 88% 4.0 mph N6.4 kmh N 5.0 mph8.0 kmh 29.93 in1013.5 mb 0.00 in0.0 mm 0.00 in0.0 mm 0.06 in1.5 mm
06:35 PM 42.3°F5.7°C 38.7°F3.7°C 87% 2.0 mph NNE3.2 kmh NNE 5.0 mph8.0 kmh 29.94 in1013.9 mb 0.00 in0.0 mm 0.00 in0.0 mm 0.06 in1.5 mm
06:30 PM 42.4°F5.8°C 38.8°F3.8°C 87% 1.0 mph NE1.6 kmh NE 4.0 mph6.4 kmh 29.93 in1013.5 mb 0.00 in0.0 mm 0.00 in0.0 mm 0.06 in1.5 mm
06:25 PM 42.4°F5.8°C 38.8°F3.8°C 87% Calm Calm -- 29.94 in1013.9 mb 0.00 in0.0 mm 0.00 in0.0 mm 0.06 in1.5 mm
06:20 PM 42.4°F5.8°C 38.8°F3.8°C 87% 2.0 mph N3.2 kmh N 6.0 mph9.7 kmh 29.94 in1013.9 mb 0.00 in0.0 mm 0.00 in0.0 mm 0.06 in1.5 mm
06:15 PM 42.5°F5.8°C 38.9°F3.8°C 87% 1.0 mph N1.6 kmh N 6.0 mph9.7 kmh 29.94 in1013.9 mb 0.00 in0.0 mm 0.00 in0.0 mm 0.06 in1.5 mm
06:10 PM 42.5°F5.8°C 38.9°F3.8°C 87% 2.0 mph NNW3.2 kmh NNW 6.0 mph9.7 kmh 29.94 in1013.9 mb 0.00 in0.0 mm 0.00 in0.0 mm 0.06 in1.5 mm
06:05 PM 42.5°F5.8°C 38.6°F3.7°C 86% 1.0 mph N1.6 kmh N 6.0 mph9.7 kmh 29.94 in1013.9 mb 0.00 in0.0 mm 0.00 in0.0 mm 0.06 in1.5 mm
06:00 PM 42.5°F5.8°C 38.6°F3.7°C 86% 1.0 mph N1.6 kmh N 6.0 mph9.7 kmh 29.93 in1013.5 mb 0.00 in0.0 mm 0.00 in0.0 mm 0.06 in1.5 mm
05:55 PM 42.5°F5.8°C 38.6°F3.7°C 86% 3.0 mph N4.8 kmh N 3.0 mph4.8 kmh 29.93 in1013.5 mb 0.00 in0.0 mm 0.00 in0.0 mm 0.06 in1.5 mm
05:50 PM 42.6°F5.9°C 38.7°F3.7°C 86% 3.0 mph N4.8 kmh N 7.0 mph11.3 kmh 29.93 in1013.5 mb 0.00 in0.0 mm 0.00 in0.0 mm 0.06 in1.5 mm
05:45 PM 42.6°F5.9°C 38.7°F3.7°C 86% 5.0 mph NNW8.0 kmh NNW 7.0 mph11.3 kmh 29.93 in1013.5 mb 0.00 in0.0 mm 0.00 in0.0 mm 0.06 in1.5 mm
05:40 PM 42.7°F5.9°C 38.8°F3.8°C 86% 3.0 mph NNW4.8 kmh NNW 7.0 mph11.3 kmh 29.93 in1013.5 mb 0.00 in0.0 mm 0.00 in0.0 mm 0.06 in1.5 mm
05:35 PM 42.6°F5.9°C 38.7°F3.7°C 86% 3.0 mph N4.8 kmh N 7.0 mph11.3 kmh 29.93 in1013.5 mb 0.00 in0.0 mm 0.00 in0.0 mm 0.06 in1.5 mm
05:30 PM 42.7°F5.9°C 38.8°F3.8°C 86% 2.0 mph NNW3.2 kmh NNW 7.0 mph11.3 kmh 29.93 in1013.5 mb 0.00 in0.0 mm 0.00 in0.0 mm 0.06 in1.5 mm
05:25 PM 42.8°F6.0°C 38.9°F3.8°C 86% Calm Calm 1.0 mph1.6 kmh 29.93 in1013.5 mb 0.00 in0.0 mm 0.00 in0.0 mm 0.06 in1.5 mm
05:20 PM 43.0°F6.1°C 39.1°F3.9°C 86% 3.0 mph NNW4.8 kmh NNW 7.0 mph11.3 kmh 29.93 in1013.5 mb 0.00 in0.0 mm 0.00 in0.0 mm 0.06 in1.5 mm
05:15 PM 43.1°F6.2°C 39.2°F4.0°C 86% 2.0 mph NW3.2 kmh NW 7.0 mph11.3 kmh 29.93 in1013.5 mb 0.00 in0.0 mm 0.00 in0.0 mm 0.06 in1.5 mm
05:10 PM 43.2°F6.2°C 39.3°F4.1°C 86% 3.0 mph NNW4.8 kmh NNW 7.0 mph11.3 kmh 29.93 in1013.5 mb 0.00 in0.0 mm 0.00 in0.0 mm 0.06 in1.5 mm
05:05 PM 43.1°F6.2°C 39.2°F4.0°C 86% 2.0 mph N3.2 kmh N 6.0 mph9.7 kmh 29.93 in1013.5 mb 0.00 in0.0 mm 0.00 in0.0 mm 0.06 in1.5 mm
05:00 PM 43.1°F6.2°C 39.2°F4.0°C 86% 4.0 mph NNW6.4 kmh NNW 6.0 mph9.7 kmh 29.93 in1013.5 mb 0.00 in0.0 mm 0.00 in0.0 mm 0.06 in1.5 mm
04:55 PM 43.1°F6.2°C 39.2°F4.0°C 86% 4.0 mph N6.4 kmh N 4.0 mph6.4 kmh 29.93 in1013.5 mb 0.00 in0.0 mm 0.00 in0.0 mm 0.06 in1.5 mm
04:50 PM 43.2°F6.2°C 39.6°F4.2°C 87% 5.0 mph NNW8.0 kmh NNW 8.0 mph12.9 kmh 29.93 in1013.5 mb 0.00 in0.0 mm 0.00 in0.0 mm 0.06 in1.5 mm
04:45 PM 43.0°F6.1°C 39.4°F4.1°C 87% 2.0 mph NNW3.2 kmh NNW 8.0 mph12.9 kmh 29.92 in1013.2 mb 0.00 in0.0 mm 0.00 in0.0 mm 0.06 in1.5 mm
04:40 PM 42.6°F5.9°C 39.0°F3.9°C 87% 4.0 mph NW6.4 kmh NW 8.0 mph12.9 kmh 29.93 in1013.5 mb 0.00 in0.0 mm 0.00 in0.0 mm 0.06 in1.5 mm
04:35 PM 42.5°F5.8°C 38.9°F3.8°C 87% 6.0 mph N9.7 kmh N 8.0 mph12.9 kmh 29.93 in1013.5 mb 0.00 in0.0 mm 0.00 in0.0 mm 0.06 in1.5 mm
04:30 PM 42.4°F5.8°C 38.8°F3.8°C 87% 1.0 mph N1.6 kmh N 7.0 mph11.3 kmh 29.93 in1013.5 mb 0.00 in0.0 mm 0.00 in0.0 mm 0.06 in1.5 mm
04:25 PM 42.4°F5.8°C 38.8°F3.8°C 87% 4.0 mph NNW6.4 kmh NNW 5.0 mph8.0 kmh 29.93 in1013.5 mb 0.00 in0.0 mm 0.00 in0.0 mm 0.06 in1.5 mm
04:20 PM 42.3°F5.7°C 38.7°F3.7°C 87% 4.0 mph NNE6.4 kmh NNE 8.0 mph12.9 kmh 29.92 in1013.2 mb 0.00 in0.0 mm 0.00 in0.0 mm 0.06 in1.5 mm
04:15 PM 42.4°F5.8°C 39.1°F3.9°C 88% 1.0 mph NNW1.6 kmh NNW 8.0 mph12.9 kmh 29.92 in1013.2 mb 0.00 in0.0 mm 0.00 in0.0 mm 0.06 in1.5 mm
04:10 PM 42.2°F5.7°C 38.9°F3.8°C 88% 3.0 mph NW4.8 kmh NW 8.0 mph12.9 kmh 29.92 in1013.2 mb 0.00 in0.0 mm 0.00 in0.0 mm 0.06 in1.5 mm
04:05 PM 42.2°F5.7°C 38.6°F3.7°C 87% 4.0 mph N6.4 kmh N 8.0 mph12.9 kmh 29.92 in1013.2 mb 0.00 in0.0 mm 0.00 in0.0 mm 0.06 in1.5 mm
04:00 PM 42.3°F5.7°C 39.0°F3.9°C 88% 3.0 mph NNW4.8 kmh NNW 8.0 mph12.9 kmh 29.92 in1013.2 mb 0.00 in0.0 mm 0.00 in0.0 mm 0.06 in1.5 mm
03:55 PM 42.3°F5.7°C 38.7°F3.7°C 87% 5.0 mph NNE8.0 kmh NNE 5.0 mph8.0 kmh 29.92 in1013.2 mb 0.00 in0.0 mm 0.00 in0.0 mm 0.06 in1.5 mm
03:50 PM 42.3°F5.7°C 38.7°F3.7°C 87% 3.0 mph N4.8 kmh N 8.0 mph12.9 kmh 29.92 in1013.2 mb 0.00 in0.0 mm 0.00 in0.0 mm 0.06 in1.5 mm
03:45 PM 42.3°F5.7°C 38.7°F3.7°C 87% 4.0 mph N6.4 kmh N 8.0 mph12.9 kmh 29.92 in1013.2 mb 0.00 in0.0 mm 0.00 in0.0 mm 0.06 in1.5 mm
03:40 PM 42.4°F5.8°C 39.1°F3.9°C 88% 3.0 mph NW4.8 kmh NW 8.0 mph12.9 kmh 29.92 in1013.2 mb 0.00 in0.0 mm 0.00 in0.0 mm 0.06 in1.5 mm
03:35 PM 42.3°F5.7°C 39.0°F3.9°C 88% 2.0 mph N3.2 kmh N 8.0 mph12.9 kmh 29.92 in1013.2 mb 0.00 in0.0 mm 0.00 in0.0 mm 0.06 in1.5 mm
03:30 PM 42.2°F5.7°C 38.6°F3.7°C 87% 2.0 mph NNE3.2 kmh NNE 8.0 mph12.9 kmh 29.92 in1013.2 mb 0.00 in0.0 mm 0.00 in0.0 mm 0.06 in1.5 mm
03:25 PM 42.3°F5.7°C 39.0°F3.9°C 88% 5.0 mph NW8.0 kmh NW 7.0 mph11.3 kmh 29.92 in1013.2 mb 0.00 in0.0 mm 0.00 in0.0 mm 0.06 in1.5 mm
03:20 PM 42.1°F5.6°C 38.8°F3.8°C 88% 6.0 mph NW9.7 kmh NW 8.0 mph12.9 kmh 29.92 in1013.2 mb 0.00 in0.0 mm 0.00 in0.0 mm 0.06 in1.5 mm
03:15 PM 41.9°F5.5°C 38.6°F3.7°C 88% 3.0 mph NW4.8 kmh NW 8.0 mph12.9 kmh 29.91 in1012.9 mb 0.00 in0.0 mm 0.00 in0.0 mm 0.06 in1.5 mm
03:10 PM 41.9°F5.5°C 38.6°F3.7°C 88% 4.0 mph NNW6.4 kmh NNW 8.0 mph12.9 kmh 29.92 in1013.2 mb 0.00 in0.0 mm 0.00 in0.0 mm 0.06 in1.5 mm
03:05 PM 41.8°F5.4°C 38.5°F3.6°C 88% 3.0 mph NNW4.8 kmh NNW 8.0 mph12.9 kmh 29.92 in1013.2 mb 0.00 in0.0 mm 0.00 in0.0 mm 0.06 in1.5 mm
03:00 PM 41.9°F5.5°C 38.6°F3.7°C 88% 4.0 mph NW6.4 kmh NW 8.0 mph12.9 kmh 29.92 in1013.2 mb 0.00 in0.0 mm 0.00 in0.0 mm 0.06 in1.5 mm
02:55 PM 41.9°F5.5°C 38.6°F3.7°C 88% 3.0 mph NW4.8 kmh NW 3.0 mph4.8 kmh 29.92 in1013.2 mb 0.00 in0.0 mm 0.00 in0.0 mm 0.06 in1.5 mm
02:50 PM 42.0°F5.6°C 38.7°F3.7°C 88% 2.0 mph NNW3.2 kmh NNW 9.0 mph14.5 kmh 29.92 in1013.2 mb 0.00 in0.0 mm 0.00 in0.0 mm 0.06 in1.5 mm
02:45 PM 42.1°F5.6°C 38.8°F3.8°C 88% 2.0 mph WNW3.2 kmh WNW 9.0 mph14.5 kmh 29.92 in1013.2 mb 0.00 in0.0 mm 0.00 in0.0 mm 0.06 in1.5 mm
02:40 PM 42.0°F5.6°C 38.7°F3.7°C 88% 5.0 mph NW8.0 kmh NW 9.0 mph14.5 kmh 29.91 in1012.9 mb 0.00 in0.0 mm 0.00 in0.0 mm 0.06 in1.5 mm
02:35 PM 41.9°F5.5°C 38.6°F3.7°C 88% 3.0 mph NNW4.8 kmh NNW 9.0 mph14.5 kmh 29.91 in1012.9 mb 0.00 in0.0 mm 0.00 in0.0 mm 0.06 in1.5 mm
02:30 PM 42.0°F5.6°C 38.7°F3.7°C 88% 6.0 mph NNW9.7 kmh NNW 9.0 mph14.5 kmh 29.92 in1013.2 mb 0.00 in0.0 mm 0.00 in0.0 mm 0.06 in1.5 mm
02:25 PM 42.2°F5.7°C 38.9°F3.8°C 88% 6.0 mph NNE9.7 kmh NNE 9.0 mph14.5 kmh 29.92 in1013.2 mb 0.00 in0.0 mm 0.00 in0.0 mm 0.06 in1.5 mm
02:20 PM 42.2°F5.7°C 39.2°F4.0°C 89% 4.0 mph N6.4 kmh N 8.0 mph12.9 kmh 29.92 in1013.2 mb 0.00 in0.0 mm 0.00 in0.0 mm 0.06 in1.5 mm
02:15 PM 41.7°F5.4°C 38.7°F3.7°C 89% 2.0 mph N3.2 kmh N 8.0 mph12.9 kmh 29.92 in1013.2 mb 0.00 in0.0 mm 0.00 in0.0 mm 0.06 in1.5 mm
02:10 PM 41.6°F5.3°C 38.6°F3.7°C 89% 4.0 mph N6.4 kmh N 8.0 mph12.9 kmh 29.92 in1013.2 mb 0.00 in0.0 mm 0.00 in0.0 mm 0.06 in1.5 mm
02:05 PM 41.7°F5.4°C 38.7°F3.7°C 89% 3.0 mph N4.8 kmh N 8.0 mph12.9 kmh 29.92 in1013.2 mb 0.00 in0.0 mm 0.00 in0.0 mm 0.06 in1.5 mm
02:00 PM 42.0°F5.6°C 39.0°F3.9°C 89% 3.0 mph NNW4.8 kmh NNW 6.0 mph9.7 kmh 29.92 in1013.2 mb 0.00 in0.0 mm 0.00 in0.0 mm 0.06 in1.5 mm
01:55 PM 42.0°F5.6°C 38.7°F3.7°C 88% 4.0 mph NNW6.4 kmh NNW 6.0 mph9.7 kmh 29.92 in1013.2 mb 0.00 in0.0 mm 0.00 in0.0 mm 0.06 in1.5 mm
01:50 PM 42.0°F5.6°C 39.0°F3.9°C 89% 4.0 mph ENE6.4 kmh ENE 10.0 mph16.1 kmh 29.92 in1013.2 mb 0.00 in0.0 mm 0.00 in0.0 mm 0.06 in1.5 mm
01:45 PM 41.8°F5.4°C 38.8°F3.8°C 89% 2.0 mph NNW3.2 kmh NNW 10.0 mph16.1 kmh 29.92 in1013.2 mb 0.00 in0.0 mm 0.00 in0.0 mm 0.06 in1.5 mm
01:40 PM 41.7°F5.4°C 39.0°F3.9°C 90% Calm Calm 10.0 mph16.1 kmh 29.92 in1013.2 mb 0.00 in0.0 mm 0.00 in0.0 mm 0.06 in1.5 mm
01:35 PM 41.4°F5.2°C 38.4°F3.6°C 89% 4.0 mph N6.4 kmh N 10.0 mph16.1 kmh 29.92 in1013.2 mb 0.00 in0.0 mm 0.00 in0.0 mm 0.06 in1.5 mm
01:30 PM 41.3°F5.2°C 38.6°F3.7°C 90% Calm Calm 7.0 mph11.3 kmh 29.91 in1012.9 mb 0.00 in0.0 mm 0.00 in0.0 mm 0.06 in1.5 mm
01:25 PM 41.3°F5.2°C 38.6°F3.7°C 90% 5.0 mph N8.0 kmh N 7.0 mph11.3 kmh 29.92 in1013.2 mb 0.00 in0.0 mm 0.00 in0.0 mm 0.06 in1.5 mm
01:20 PM 41.2°F5.1°C 38.5°F3.6°C 90% 5.0 mph NNW8.0 kmh NNW 9.0 mph14.5 kmh 29.92 in1013.2 mb 0.00 in0.0 mm 0.00 in0.0 mm 0.06 in1.5 mm
01:15 PM 41.1°F5.1°C 38.4°F3.6°C 90% 4.0 mph NNW6.4 kmh NNW 9.0 mph14.5 kmh 29.92 in1013.2 mb 0.00 in0.0 mm 0.00 in0.0 mm 0.06 in1.5 mm
01:10 PM 40.8°F4.9°C 38.1°F3.4°C 90% 3.0 mph N4.8 kmh N 9.0 mph14.5 kmh 29.92 in1013.2 mb 0.00 in0.0 mm 0.00 in0.0 mm 0.06 in1.5 mm
01:05 PM 40.9°F4.9°C 38.2°F3.4°C 90% 3.0 mph N4.8 kmh N 9.0 mph14.5 kmh 29.92 in1013.2 mb 0.00 in0.0 mm 0.00 in0.0 mm 0.06 in1.5 mm
01:00 PM 40.7°F4.8°C 38.0°F3.3°C 90% 1.0 mph NNW1.6 kmh NNW 7.0 mph11.3 kmh 29.92 in1013.2 mb 0.00 in0.0 mm 0.00 in0.0 mm 0.06 in1.5 mm
12:55 PM 40.8°F4.9°C 38.1°F3.4°C 90% 4.0 mph NNE6.4 kmh NNE 5.0 mph8.0 kmh 29.93 in1013.5 mb 0.00 in0.0 mm 0.00 in0.0 mm 0.06 in1.5 mm
12:50 PM 41.0°F5.0°C 38.3°F3.5°C 90% Calm Calm 7.0 mph11.3 kmh 29.92 in1013.2 mb 0.00 in0.0 mm 0.00 in0.0 mm 0.06 in1.5 mm
12:45 PM 41.1°F5.1°C 38.4°F3.6°C 90% 3.0 mph NNW4.8 kmh NNW 7.0 mph11.3 kmh 29.92 in1013.2 mb 0.00 in0.0 mm 0.00 in0.0 mm 0.06 in1.5 mm
12:40 PM 41.2°F5.1°C 38.5°F3.6°C 90% 2.0 mph N3.2 kmh N 7.0 mph11.3 kmh 29.92 in1013.2 mb 0.00 in0.0 mm 0.00 in0.0 mm 0.06 in1.5 mm
12:35 PM 40.8°F4.9°C 38.4°F3.6°C 91% 2.0 mph NNE3.2 kmh NNE 7.0 mph11.3 kmh 29.93 in1013.5 mb 0.00 in0.0 mm 0.00 in0.0 mm 0.06 in1.5 mm
12:30 PM 40.5°F4.7°C 38.1°F3.4°C 91% 3.0 mph N4.8 kmh N 7.0 mph11.3 kmh 29.92 in1013.2 mb 0.00 in0.0 mm 0.00 in0.0 mm 0.06 in1.5 mm
12:25 PM 40.6°F4.8°C 38.2°F3.4°C 91% 5.0 mph NE8.0 kmh NE 5.0 mph8.0 kmh 29.93 in1013.5 mb 0.00 in0.0 mm 0.00 in0.0 mm 0.06 in1.5 mm
12:20 PM 40.4°F4.7°C 38.0°F3.3°C 91% 1.0 mph N1.6 kmh N 8.0 mph12.9 kmh 29.93 in1013.5 mb 0.00 in0.0 mm 0.00 in0.0 mm 0.06 in1.5 mm
12:15 PM 39.9°F4.4°C 37.5°F3.1°C 91% Calm Calm 8.0 mph12.9 kmh 29.93 in1013.5 mb 0.00 in0.0 mm 0.00 in0.0 mm 0.06 in1.5 mm
12:10 PM 39.8°F4.3°C 37.4°F3.0°C 91% 3.0 mph NE4.8 kmh NE 8.0 mph12.9 kmh 29.93 in1013.5 mb 0.00 in0.0 mm 0.00 in0.0 mm 0.06 in1.5 mm
12:05 PM 39.7°F4.3°C 37.3°F2.9°C 91% 2.0 mph E3.2 kmh E 8.0 mph12.9 kmh 29.93 in1013.5 mb 0.00 in0.0 mm 0.00 in0.0 mm 0.06 in1.5 mm
12:00 PM 39.7°F4.3°C 37.3°F2.9°C 91% 2.0 mph NE3.2 kmh NE 7.0 mph11.3 kmh 29.93 in1013.5 mb 0.00 in0.0 mm 0.00 in0.0 mm 0.06 in1.5 mm
11:55 AM 39.6°F4.2°C 37.2°F2.9°C 91% 2.0 mph NE3.2 kmh NE 4.0 mph6.4 kmh 29.93 in1013.5 mb 0.00 in0.0 mm 0.00 in0.0 mm 0.06 in1.5 mm
11:50 AM 39.4°F4.1°C 37.0°F2.8°C 91% Calm Calm 10.0 mph16.1 kmh 29.93 in1013.5 mb 0.00 in0.0 mm 0.00 in0.0 mm 0.06 in1.5 mm
11:45 AM 39.4°F4.1°C 37.0°F2.8°C 91% 5.0 mph NNE8.0 kmh NNE 10.0 mph16.1 kmh 29.93 in1013.5 mb 0.00 in0.0 mm 0.00 in0.0 mm 0.06 in1.5 mm
11:40 AM 39.4°F4.1°C 37.0°F2.8°C 91% 3.0 mph NE4.8 kmh NE 10.0 mph16.1 kmh 29.94 in1013.9 mb 0.00 in0.0 mm 0.00 in0.0 mm 0.06 in1.5 mm
11:35 AM 39.2°F4.0°C 36.8°F2.7°C 91% 3.0 mph ENE4.8 kmh ENE 10.0 mph16.1 kmh 29.94 in1013.9 mb 0.00 in0.0 mm 0.00 in0.0 mm 0.06 in1.5 mm
11:30 AM 39.1°F3.9°C 36.7°F2.6°C 91% 7.0 mph N11.3 kmh N 7.0 mph11.3 kmh 29.94 in1013.9 mb 0.00 in0.0 mm 0.00 in0.0 mm 0.06 in1.5 mm
11:25 AM 39.0°F3.9°C 36.6°F2.6°C 91% Calm Calm -- 29.94 in1013.9 mb 0.00 in0.0 mm 0.00 in0.0 mm 0.06 in1.5 mm
11:20 AM 38.9°F3.8°C 36.5°F2.5°C 91% Calm Calm 9.0 mph14.5 kmh 29.94 in1013.9 mb 0.00 in0.0 mm 0.00 in0.0 mm 0.06 in1.5 mm
11:15 AM 38.9°F3.8°C 36.5°F2.5°C 91% 3.0 mph NNE4.8 kmh NNE 9.0 mph14.5 kmh 29.94 in1013.9 mb 0.00 in0.0 mm 0.00 in0.0 mm 0.06 in1.5 mm
11:10 AM 39.0°F3.9°C 36.6°F2.6°C 91% 4.0 mph N6.4 kmh N 8.0 mph12.9 kmh 29.94 in1013.9 mb 0.00 in0.0 mm 0.00 in0.0 mm 0.06 in1.5 mm
11:05 AM 38.9°F3.8°C 36.5°F2.5°C 91% Calm Calm 6.0 mph9.7 kmh 29.94 in1013.9 mb 0.00 in0.0 mm 0.00 in0.0 mm 0.06 in1.5 mm
11:00 AM 38.8°F3.8°C 36.4°F2.4°C 91% 4.0 mph NE6.4 kmh NE 6.0 mph9.7 kmh 29.94 in1013.9 mb 0.00 in0.0 mm 0.00 in0.0 mm 0.06 in1.5 mm
10:55 AM 38.8°F3.8°C 36.4°F2.4°C 91% 1.0 mph ENE1.6 kmh ENE 2.0 mph3.2 kmh 29.94 in1013.9 mb 0.00 in0.0 mm 0.00 in0.0 mm 0.06 in1.5 mm
10:50 AM 38.6°F3.7°C 36.2°F2.3°C 91% 3.0 mph NE4.8 kmh NE 9.0 mph14.5 kmh 29.93 in1013.5 mb 0.00 in0.0 mm 0.00 in0.0 mm 0.06 in1.5 mm
10:45 AM 38.7°F3.7°C 36.3°F2.4°C 91% 8.0 mph N12.9 kmh N 9.0 mph14.5 kmh 29.93 in1013.5 mb 0.00 in0.0 mm 0.00 in0.0 mm 0.06 in1.5 mm
10:40 AM 38.7°F3.7°C 36.3°F2.4°C 91% 6.0 mph N9.7 kmh N 7.0 mph11.3 kmh 29.94 in1013.9 mb 0.00 in0.0 mm 0.00 in0.0 mm 0.06 in1.5 mm
10:35 AM 38.7°F3.7°C 36.3°F2.4°C 91% 5.0 mph N8.0 kmh N 7.0 mph11.3 kmh 29.93 in1013.5 mb 0.00 in0.0 mm 0.00 in0.0 mm 0.06 in1.5 mm
10:30 AM 38.7°F3.7°C 36.3°F2.4°C 91% 2.0 mph ENE3.2 kmh ENE 6.0 mph9.7 kmh 29.93 in1013.5 mb 0.00 in0.0 mm 0.00 in0.0 mm 0.06 in1.5 mm
10:25 AM 38.9°F3.8°C 36.5°F2.5°C 91% 4.0 mph NE6.4 kmh NE 4.0 mph6.4 kmh 29.93 in1013.5 mb 0.00 in0.0 mm 0.00 in0.0 mm 0.06 in1.5 mm
10:20 AM 38.5°F3.6°C 36.1°F2.3°C 91% 2.0 mph NNE3.2 kmh NNE 8.0 mph12.9 kmh 29.93 in1013.5 mb 0.00 in0.0 mm 0.00 in0.0 mm 0.06 in1.5 mm
10:15 AM 38.5°F3.6°C 36.1°F2.3°C 91% 2.0 mph E3.2 kmh E 8.0 mph12.9 kmh 29.94 in1013.9 mb 0.00 in0.0 mm 0.00 in0.0 mm 0.06 in1.5 mm
10:09 AM 38.7°F3.7°C 36.3°F2.4°C 91% Calm Calm 8.0 mph12.9 kmh 29.93 in1013.5 mb 0.00 in0.0 mm 0.00 in0.0 mm 0.06 in1.5 mm
10:05 AM 38.5°F3.6°C 36.1°F2.3°C 91% Calm Calm 5.0 mph8.0 kmh 29.93 in1013.5 mb 0.00 in0.0 mm 0.00 in0.0 mm 0.06 in1.5 mm
10:00 AM 38.1°F3.4°C 35.7°F2.1°C 91% 2.0 mph NE3.2 kmh NE 5.0 mph8.0 kmh 29.94 in1013.9 mb 0.00 in0.0 mm 0.00 in0.0 mm 0.06 in1.5 mm
09:55 AM 37.8°F3.2°C 35.4°F1.9°C 91% 1.0 mph NE1.6 kmh NE 2.0 mph3.2 kmh 29.94 in1013.9 mb 0.00 in0.0 mm 0.00 in0.0 mm 0.06 in1.5 mm
09:50 AM 37.6°F3.1°C 35.2°F1.8°C 91% Calm Calm 7.0 mph11.3 kmh 29.94 in1013.9 mb 0.00 in0.0 mm 0.00 in0.0 mm 0.06 in1.5 mm
09:45 AM 37.5°F3.1°C 35.1°F1.7°C 91% 2.0 mph NNE3.2 kmh NNE 7.0 mph11.3 kmh 29.94 in1013.9 mb 0.00 in0.0 mm 0.00 in0.0 mm 0.06 in1.5 mm
09:40 AM 37.6°F3.1°C 35.2°F1.8°C 91% Calm Calm 7.0 mph11.3 kmh 29.94 in1013.9 mb 0.00 in0.0 mm 0.00 in0.0 mm 0.06 in1.5 mm
09:35 AM 37.5°F3.1°C 35.1°F1.7°C 91% Calm Calm 7.0 mph11.3 kmh 29.94 in1013.9 mb 0.00 in0.0 mm 0.00 in0.0 mm 0.06 in1.5 mm
09:30 AM 37.2°F2.9°C 34.8°F1.6°C 91% 3.0 mph NNE4.8 kmh NNE 7.0 mph11.3 kmh 29.94 in1013.9 mb 0.00 in0.0 mm 0.00 in0.0 mm 0.06 in1.5 mm
09:25 AM 37.2°F2.9°C 34.8°F1.6°C 91% 3.0 mph NE4.8 kmh NE 3.0 mph4.8 kmh 29.94 in1013.9 mb 0.00 in0.0 mm 0.00 in0.0 mm 0.06 in1.5 mm
09:20 AM 37.2°F2.9°C 34.8°F1.6°C 91% 1.0 mph NE1.6 kmh NE 7.0 mph11.3 kmh 29.94 in1013.9 mb 0.00 in0.0 mm 0.00 in0.0 mm 0.06 in1.5 mm
09:15 AM 37.2°F2.9°C 34.8°F1.6°C 91% 1.0 mph NNE1.6 kmh NNE 7.0 mph11.3 kmh 29.94 in1013.9 mb 0.00 in0.0 mm 0.00 in0.0 mm 0.06 in1.5 mm
09:10 AM 37.3°F2.9°C 34.9°F1.6°C 91% 5.0 mph NNE8.0 kmh NNE 7.0 mph11.3 kmh 29.94 in1013.9 mb 0.00 in0.0 mm 0.00 in0.0 mm 0.06 in1.5 mm
09:05 AM 37.2°F2.9°C 34.8°F1.6°C 91% 2.0 mph NE3.2 kmh NE 7.0 mph11.3 kmh 29.94 in1013.9 mb 0.00 in0.0 mm 0.00 in0.0 mm 0.06 in1.5 mm
09:00 AM 37.1°F2.8°C 34.7°F1.5°C 91% 2.0 mph NE3.2 kmh NE 7.0 mph11.3 kmh 29.94 in1013.9 mb 0.00 in0.0 mm 0.00 in0.0 mm 0.06 in1.5 mm
08:55 AM 37.2°F2.9°C 34.8°F1.6°C 91% Calm Calm -- 29.94 in1013.9 mb 0.00 in0.0 mm 0.00 in0.0 mm 0.06 in1.5 mm
08:50 AM 37.1°F2.8°C 34.7°F1.5°C 91% Calm Calm 6.0 mph9.7 kmh 29.94 in1013.9 mb 0.00 in0.0 mm 0.00 in0.0 mm 0.06 in1.5 mm
08:45 AM 37.2°F2.9°C 34.8°F1.6°C 91% 2.0 mph NE3.2 kmh NE 6.0 mph9.7 kmh 29.94 in1013.9 mb 0.00 in0.0 mm 0.00 in0.0 mm 0.06 in1.5 mm
08:40 AM 37.1°F2.8°C 34.7°F1.5°C 91% 1.0 mph ENE1.6 kmh ENE 6.0 mph9.7 kmh 29.94 in1013.9 mb 0.00 in0.0 mm 0.00 in0.0 mm 0.06 in1.5 mm
08:35 AM 37.1°F2.8°C 34.7°F1.5°C 91% 1.0 mph NE1.6 kmh NE 5.0 mph8.0 kmh 29.94 in1013.9 mb 0.00 in0.0 mm 0.00 in0.0 mm 0.06 in1.5 mm
08:30 AM 37.1°F2.8°C 34.7°F1.5°C 91% 1.0 mph NE1.6 kmh NE 5.0 mph8.0 kmh 29.94 in1013.9 mb 0.00 in0.0 mm 0.00 in0.0 mm 0.06 in1.5 mm
08:25 AM 37.1°F2.8°C 34.7°F1.5°C 91% Calm Calm 1.0 mph1.6 kmh 29.94 in1013.9 mb 0.00 in0.0 mm 0.00 in0.0 mm 0.06 in1.5 mm
08:20 AM 37.1°F2.8°C 34.7°F1.5°C 91% Calm Calm 7.0 mph11.3 kmh 29.94 in1013.9 mb 0.00 in0.0 mm 0.00 in0.0 mm 0.06 in1.5 mm
08:15 AM 37.0°F2.8°C 34.6°F1.4°C 91% 1.0 mph E1.6 kmh E 7.0 mph11.3 kmh 29.94 in1013.9 mb 0.00 in0.0 mm 0.00 in0.0 mm 0.06 in1.5 mm
08:10 AM 36.8°F2.7°C 34.4°F1.3°C 91% Calm Calm 7.0 mph11.3 kmh 29.94 in1013.9 mb 0.00 in0.0 mm 0.00 in0.0 mm 0.06 in1.5 mm
08:05 AM 36.9°F2.7°C 34.5°F1.4°C 91% Calm Calm 7.0 mph11.3 kmh 29.94 in1013.9 mb 0.00 in0.0 mm 0.00 in0.0 mm 0.06 in1.5 mm
08:00 AM 36.8°F2.7°C 34.4°F1.3°C 91% 2.0 mph NNE3.2 kmh NNE 5.0 mph8.0 kmh 29.94 in1013.9 mb 0.00 in0.0 mm 0.00 in0.0 mm 0.06 in1.5 mm
07:55 AM 36.9°F2.7°C 34.5°F1.4°C 91% 3.0 mph NE4.8 kmh NE 3.0 mph4.8 kmh 29.94 in1013.9 mb 0.00 in0.0 mm 0.00 in0.0 mm 0.06 in1.5 mm
07:50 AM 36.9°F2.7°C 34.5°F1.4°C 91% 1.0 mph N1.6 kmh N 7.0 mph11.3 kmh 29.94 in1013.9 mb 0.00 in0.0 mm 0.00 in0.0 mm 0.06 in1.5 mm
07:45 AM 36.9°F2.7°C 34.5°F1.4°C 91% Calm Calm 7.0 mph11.3 kmh 29.95 in1014.2 mb 0.00 in0.0 mm 0.00 in0.0 mm 0.06 in1.5 mm
07:40 AM 36.9°F2.7°C 34.5°F1.4°C 91% Calm Calm 7.0 mph11.3 kmh 29.95 in1014.2 mb 0.00 in0.0 mm 0.00 in0.0 mm 0.06 in1.5 mm
07:35 AM 36.8°F2.7°C 34.4°F1.3°C 91% 1.0 mph NE1.6 kmh NE 7.0 mph11.3 kmh 29.95 in1014.2 mb 0.00 in0.0 mm 0.00 in0.0 mm 0.06 in1.5 mm
07:30 AM 36.8°F2.7°C 34.4°F1.3°C 91% Calm Calm -- 29.94 in1013.9 mb 0.00 in0.0 mm 0.00 in0.0 mm 0.06 in1.5 mm
07:25 AM 36.8°F2.7°C 34.4°F1.3°C 91% Calm Calm -- 29.94 in1013.9 mb 0.00 in0.0 mm 0.00 in0.0 mm 0.06 in1.5 mm
07:20 AM 36.9°F2.7°C 34.5°F1.4°C 91% Calm Calm 6.0 mph9.7 kmh 29.94 in1013.9 mb 0.00 in0.0 mm 0.00 in0.0 mm 0.06 in1.5 mm
07:15 AM 36.9°F2.7°C 34.5°F1.4°C 91% 2.0 mph E3.2 kmh E 6.0 mph9.7 kmh 29.94 in1013.9 mb 0.00 in0.0 mm 0.00 in0.0 mm 0.06 in1.5 mm
07:10 AM 36.9°F2.7°C 34.5°F1.4°C 91% 2.0 mph E3.2 kmh E 6.0 mph9.7 kmh 29.94 in1013.9 mb 0.00 in0.0 mm 0.00 in0.0 mm 0.06 in1.5 mm
07:05 AM 36.7°F2.6°C 34.3°F1.3°C 91% 2.0 mph E3.2 kmh E 6.0 mph9.7 kmh 29.94 in1013.9 mb 0.00 in0.0 mm 0.00 in0.0 mm 0.06 in1.5 mm
07:00 AM 36.8°F2.7°C 34.4°F1.3°C 91% 2.0 mph ENE3.2 kmh ENE 6.0 mph9.7 kmh 29.94 in1013.9 mb 0.00 in0.0 mm 0.00 in0.0 mm 0.06 in1.5 mm
06:55 AM 36.8°F2.7°C 34.4°F1.3°C 91% 4.0 mph E6.4 kmh E 4.0 mph6.4 kmh 29.94 in1013.9 mb 0.00 in0.0 mm 0.00 in0.0 mm 0.06 in1.5 mm
06:50 AM 36.9°F2.7°C 34.5°F1.4°C 91% Calm Calm 7.0 mph11.3 kmh 29.94 in1013.9 mb 0.00 in0.0 mm 0.00 in0.0 mm 0.06 in1.5 mm
06:45 AM 36.9°F2.7°C 34.5°F1.4°C 91% Calm Calm 7.0 mph11.3 kmh 29.94 in1013.9 mb 0.00 in0.0 mm 0.00 in0.0 mm 0.06 in1.5 mm
06:40 AM 36.9°F2.7°C 34.5°F1.4°C 91% 1.0 mph NE1.6 kmh NE 7.0 mph11.3 kmh 29.94 in1013.9 mb 0.00 in0.0 mm 0.00 in0.0 mm 0.06 in1.5 mm
06:35 AM 36.9°F2.7°C 34.5°F1.4°C 91% Calm Calm 1.0 mph1.6 kmh 29.94 in1013.9 mb 0.00 in0.0 mm 0.00 in0.0 mm 0.06 in1.5 mm
06:30 AM 36.8°F2.7°C 34.4°F1.3°C 91% Calm Calm -- 29.94 in1013.9 mb 0.00 in0.0 mm 0.00 in0.0 mm 0.06 in1.5 mm
06:25 AM 36.8°F2.7°C 34.4°F1.3°C 91% Calm Calm -- 29.94 in1013.9 mb 0.00 in0.0 mm 0.00 in0.0 mm 0.06 in1.5 mm
06:20 AM 36.9°F2.7°C 34.5°F1.4°C 91% Calm Calm 4.0 mph6.4 kmh 29.94 in1013.9 mb 0.00 in0.0 mm 0.00 in0.0 mm 0.06 in1.5 mm
06:15 AM 36.9°F2.7°C 34.5°F1.4°C 91% Calm Calm 4.0 mph6.4 kmh 29.94 in1013.9 mb 0.00 in0.0 mm 0.00 in0.0 mm 0.06 in1.5 mm
06:10 AM 36.9°F2.7°C 34.5°F1.4°C 91% Calm Calm 4.0 mph6.4 kmh 29.93 in1013.5 mb 0.00 in0.0 mm 0.00 in0.0 mm 0.06 in1.5 mm
06:05 AM 36.9°F2.7°C 34.5°F1.4°C 91% Calm Calm 4.0 mph6.4 kmh 29.93 in1013.5 mb 0.00 in0.0 mm 0.00 in0.0 mm 0.06 in1.5 mm
06:00 AM 36.9°F2.7°C 34.5°F1.4°C 91% Calm Calm 4.0 mph6.4 kmh 29.93 in1013.5 mb 0.00 in0.0 mm 0.00 in0.0 mm 0.06 in1.5 mm
05:55 AM 36.9°F2.7°C 34.5°F1.4°C 91% Calm Calm -- 29.93 in1013.5 mb 0.00 in0.0 mm 0.00 in0.0 mm 0.06 in1.5 mm
05:50 AM 37.0°F2.8°C 34.6°F1.4°C 91% Calm Calm 4.0 mph6.4 kmh 29.93 in1013.5 mb 0.00 in0.0 mm 0.00 in0.0 mm 0.06 in1.5 mm
05:45 AM 37.0°F2.8°C 34.6°F1.4°C 91% 4.0 mph NNE6.4 kmh NNE 4.0 mph6.4 kmh 29.92 in1013.2 mb 0.00 in0.0 mm 0.00 in0.0 mm 0.06 in1.5 mm
05:40 AM 37.0°F2.8°C 34.6°F1.4°C 91% Calm Calm 4.0 mph6.4 kmh 29.92 in1013.2 mb 0.00 in0.0 mm 0.00 in0.0 mm 0.06 in1.5 mm
05:35 AM 37.0°F2.8°C 34.6°F1.4°C 91% Calm Calm 4.0 mph6.4 kmh 29.92 in1013.2 mb 0.00 in0.0 mm 0.00 in0.0 mm 0.06 in1.5 mm
05:30 AM 37.1°F2.8°C 34.7°F1.5°C 91% Calm Calm 4.0 mph6.4 kmh 29.92 in1013.2 mb 0.00 in0.0 mm 0.00 in0.0 mm 0.06 in1.5 mm
05:25 AM 37.1°F2.8°C 34.7°F1.5°C 91% Calm Calm -- 29.92 in1013.2 mb 0.00 in0.0 mm 0.00 in0.0 mm 0.06 in1.5 mm
05:20 AM 37.1°F2.8°C 34.7°F1.5°C 91% Calm Calm 4.0 mph6.4 kmh 29.92 in1013.2 mb 0.00 in0.0 mm 0.00 in0.0 mm 0.06 in1.5 mm
05:15 AM 37.2°F2.9°C 34.8°F1.6°C 91% Calm Calm 4.0 mph6.4 kmh 29.92 in1013.2 mb 0.00 in0.0 mm 0.00 in0.0 mm 0.06 in1.5 mm
05:10 AM 37.2°F2.9°C 34.8°F1.6°C 91% 1.0 mph ENE1.6 kmh ENE 4.0 mph6.4 kmh 29.92 in1013.2 mb 0.00 in0.0 mm 0.00 in0.0 mm 0.06 in1.5 mm
05:05 AM 37.2°F2.9°C 34.8°F1.6°C 91% 1.0 mph NE1.6 kmh NE 4.0 mph6.4 kmh 29.92 in1013.2 mb 0.00 in0.0 mm 0.00 in0.0 mm 0.06 in1.5 mm
05:00 AM 37.2°F2.9°C 34.8°F1.6°C 91% Calm Calm 2.0 mph3.2 kmh 29.92 in1013.2 mb 0.00 in0.0 mm 0.00 in0.0 mm 0.06 in1.5 mm
04:55 AM 37.2°F2.9°C 34.8°F1.6°C 91% Calm Calm -- 29.92 in1013.2 mb 0.00 in0.0 mm 0.00 in0.0 mm 0.06 in1.5 mm
04:50 AM 37.2°F2.9°C 34.8°F1.6°C 91% Calm Calm 3.0 mph4.8 kmh 29.92 in1013.2 mb 0.00 in0.0 mm 0.00 in0.0 mm 0.06 in1.5 mm
04:45 AM 37.2°F2.9°C 34.8°F1.6°C 91% Calm Calm 3.0 mph4.8 kmh 29.93 in1013.5 mb 0.00 in0.0 mm 0.00 in0.0 mm 0.06 in1.5 mm
04:40 AM 37.2°F2.9°C 34.8°F1.6°C 91% Calm Calm 3.0 mph4.8 kmh 29.92 in1013.2 mb 0.00 in0.0 mm 0.00 in0.0 mm 0.06 in1.5 mm
04:35 AM 37.2°F2.9°C 34.8°F1.6°C 91% 2.0 mph E3.2 kmh E 3.0 mph4.8 kmh 29.93 in1013.5 mb 0.00 in0.0 mm 0.00 in0.0 mm 0.06 in1.5 mm
04:30 AM 37.3°F2.9°C 34.9°F1.6°C 91% Calm Calm 2.0 mph3.2 kmh 29.93 in1013.5 mb 0.00 in0.0 mm 0.00 in0.0 mm 0.06 in1.5 mm
04:25 AM 37.3°F2.9°C 34.9°F1.6°C 91% Calm Calm -- 29.93 in1013.5 mb 0.00 in0.0 mm 0.00 in0.0 mm 0.06 in1.5 mm
04:20 AM 37.3°F2.9°C 34.9°F1.6°C 91% Calm Calm 7.0 mph11.3 kmh 29.93 in1013.5 mb 0.00 in0.0 mm 0.00 in0.0 mm 0.06 in1.5 mm
04:15 AM 37.3°F2.9°C 34.9°F1.6°C 91% 2.0 mph NE3.2 kmh NE 7.0 mph11.3 kmh 29.93 in1013.5 mb 0.00 in0.0 mm 0.00 in0.0 mm 0.06 in1.5 mm
04:10 AM 37.3°F2.9°C 34.9°F1.6°C 91% 3.0 mph E4.8 kmh E 7.0 mph11.3 kmh 29.93 in1013.5 mb 0.00 in0.0 mm 0.00 in0.0 mm 0.06 in1.5 mm
04:05 AM 37.4°F3.0°C 35.0°F1.7°C 91% 1.0 mph E1.6 kmh E 5.0 mph8.0 kmh 29.93 in1013.5 mb 0.00 in0.0 mm 0.00 in0.0 mm 0.06 in1.5 mm
04:00 AM 37.4°F3.0°C 35.0°F1.7°C 91% 3.0 mph E4.8 kmh E 5.0 mph8.0 kmh 29.93 in1013.5 mb 0.00 in0.0 mm 0.00 in0.0 mm 0.06 in1.5 mm
03:55 AM 37.4°F3.0°C 35.0°F1.7°C 91% 1.0 mph E1.6 kmh E 2.0 mph3.2 kmh 29.93 in1013.5 mb 0.00 in0.0 mm 0.00 in0.0 mm 0.06 in1.5 mm
03:50 AM 37.4°F3.0°C 35.0°F1.7°C 91% Calm Calm 7.0 mph11.3 kmh 29.94 in1013.9 mb 0.00 in0.0 mm 0.00 in0.0 mm 0.06 in1.5 mm
03:45 AM 37.4°F3.0°C 35.0°F1.7°C 91% 3.0 mph E4.8 kmh E 6.0 mph9.7 kmh 29.94 in1013.9 mb 0.00 in0.0 mm 0.00 in0.0 mm 0.06 in1.5 mm
03:40 AM 37.4°F3.0°C 35.0°F1.7°C 91% 3.0 mph E4.8 kmh E 6.0 mph9.7 kmh 29.94 in1013.9 mb 0.00 in0.0 mm 0.00 in0.0 mm 0.06 in1.5 mm
03:35 AM 37.4°F3.0°C 35.0°F1.7°C 91% 1.0 mph E1.6 kmh E 6.0 mph9.7 kmh 29.94 in1013.9 mb 0.00 in0.0 mm 0.00 in0.0 mm 0.06 in1.5 mm
03:30 AM 37.4°F3.0°C 35.0°F1.7°C 91% Calm Calm 5.0 mph8.0 kmh 29.94 in1013.9 mb 0.00 in0.0 mm 0.00 in0.0 mm 0.06 in1.5 mm
03:25 AM 37.4°F3.0°C 35.0°F1.7°C 91% Calm Calm -- 29.94 in1013.9 mb 0.00 in0.0 mm 0.00 in0.0 mm 0.06 in1.5 mm
03:20 AM 37.4°F3.0°C 35.0°F1.7°C 91% 2.0 mph NE3.2 kmh NE 7.0 mph11.3 kmh 29.94 in1013.9 mb 0.01 in0.3 mm 0.00 in0.0 mm 0.06 in1.5 mm
03:15 AM 37.4°F3.0°C 35.0°F1.7°C 91% 1.0 mph E1.6 kmh E 7.0 mph11.3 kmh 29.94 in1013.9 mb 0.01 in0.3 mm 0.00 in0.0 mm 0.06 in1.5 mm
03:10 AM 37.4°F3.0°C 35.0°F1.7°C 91% Calm Calm 5.0 mph8.0 kmh 29.94 in1013.9 mb 0.01 in0.3 mm 0.00 in0.0 mm 0.06 in1.5 mm
03:05 AM 37.4°F3.0°C 35.0°F1.7°C 91% 1.0 mph E1.6 kmh E 5.0 mph8.0 kmh 29.95 in1014.2 mb 0.01 in0.3 mm 0.00 in0.0 mm 0.06 in1.5 mm
03:00 AM 37.4°F3.0°C 35.0°F1.7°C 91% 3.0 mph ENE4.8 kmh ENE 5.0 mph8.0 kmh 29.95 in1014.2 mb 0.01 in0.3 mm 0.00 in0.0 mm 0.06 in1.5 mm
02:55 AM 37.4°F3.0°C 35.0°F1.7°C 91% Calm Calm 1.0 mph1.6 kmh 29.95 in1014.2 mb 0.01 in0.3 mm 0.00 in0.0 mm 0.06 in1.5 mm
02:50 AM 37.5°F3.1°C 35.1°F1.7°C 91% Calm Calm 5.0 mph8.0 kmh 29.95 in1014.2 mb 0.03 in0.8 mm 0.00 in0.0 mm 0.06 in1.5 mm
02:45 AM 37.5°F3.1°C 35.1°F1.7°C 91% Calm Calm 5.0 mph8.0 kmh 29.95 in1014.2 mb 0.03 in0.8 mm 0.00 in0.0 mm 0.06 in1.5 mm
02:40 AM 37.6°F3.1°C 35.2°F1.8°C 91% Calm Calm 4.0 mph6.4 kmh 29.95 in1014.2 mb 0.03 in0.8 mm 0.00 in0.0 mm 0.06 in1.5 mm
02:35 AM 37.5°F3.1°C 35.1°F1.7°C 91% Calm Calm 4.0 mph6.4 kmh 29.95 in1014.2 mb 0.03 in0.8 mm 0.00 in0.0 mm 0.06 in1.5 mm
02:30 AM 37.5°F3.1°C 35.1°F1.7°C 91% 1.0 mph ENE1.6 kmh ENE 3.0 mph4.8 kmh 29.96 in1014.6 mb 0.03 in0.8 mm 0.00 in0.0 mm 0.06 in1.5 mm
02:25 AM 37.5°F3.1°C 35.1°F1.7°C 91% 1.0 mph ENE1.6 kmh ENE 2.0 mph3.2 kmh 29.96 in1014.6 mb 0.03 in0.8 mm 0.00 in0.0 mm 0.06 in1.5 mm
02:20 AM 37.6°F3.1°C 35.2°F1.8°C 91% Calm Calm 6.0 mph9.7 kmh 29.96 in1014.6 mb 0.05 in1.3 mm 0.12 in3.0 mm 0.06 in1.5 mm
02:15 AM 37.6°F3.1°C 35.2°F1.8°C 91% 3.0 mph E4.8 kmh E 5.0 mph8.0 kmh 29.96 in1014.6 mb 0.04 in1.0 mm 0.00 in0.0 mm 0.05 in1.3 mm
02:10 AM 37.7°F3.2°C 35.3°F1.8°C 91% 2.0 mph NE3.2 kmh NE 5.0 mph8.0 kmh 29.96 in1014.6 mb 0.04 in1.0 mm 0.00 in0.0 mm 0.05 in1.3 mm
02:05 AM 37.7°F3.2°C 35.3°F1.8°C 91% 2.0 mph NE3.2 kmh NE 5.0 mph8.0 kmh 29.96 in1014.6 mb 0.04 in1.0 mm 0.00 in0.0 mm 0.05 in1.3 mm
02:00 AM 37.7°F3.2°C 35.3°F1.8°C 91% Calm Calm 5.0 mph8.0 kmh 29.96 in1014.6 mb 0.04 in1.0 mm 0.00 in0.0 mm 0.05 in1.3 mm
01:55 AM 37.7°F3.2°C 35.3°F1.8°C 91% Calm Calm 1.0 mph1.6 kmh 29.96 in1014.6 mb 0.04 in1.0 mm 0.00 in0.0 mm 0.05 in1.3 mm
01:50 AM 37.7°F3.2°C 35.3°F1.8°C 91% Calm Calm 8.0 mph12.9 kmh 29.97 in1014.9 mb 0.04 in1.0 mm 0.00 in0.0 mm 0.05 in1.3 mm
01:45 AM 37.7°F3.2°C 35.3°F1.8°C 91% 4.0 mph NE6.4 kmh NE 8.0 mph12.9 kmh 29.97 in1014.9 mb 0.04 in1.0 mm 0.00 in0.0 mm 0.05 in1.3 mm
01:40 AM 37.7°F3.2°C 35.3°F1.8°C 91% Calm Calm 8.0 mph12.9 kmh 29.97 in1014.9 mb 0.04 in1.0 mm 0.12 in3.0 mm 0.05 in1.3 mm
01:35 AM 37.7°F3.2°C 35.3°F1.8°C 91% 3.0 mph ENE4.8 kmh ENE 8.0 mph12.9 kmh 29.97 in1014.9 mb 0.03 in0.8 mm 0.00 in0.0 mm 0.04 in1.0 mm
01:30 AM 37.7°F3.2°C 35.3°F1.8°C 91% 2.0 mph NE3.2 kmh NE 6.0 mph9.7 kmh 29.97 in1014.9 mb 0.03 in0.8 mm 0.00 in0.0 mm 0.04 in1.0 mm
01:25 AM 37.8°F3.2°C 35.4°F1.9°C 91% Calm Calm -- 29.97 in1014.9 mb 0.03 in0.8 mm 0.00 in0.0 mm 0.04 in1.0 mm
01:20 AM 37.8°F3.2°C 35.4°F1.9°C 91% 3.0 mph ESE4.8 kmh ESE 9.0 mph14.5 kmh 29.97 in1014.9 mb 0.03 in0.8 mm 0.00 in0.0 mm 0.04 in1.0 mm
01:15 AM 37.8°F3.2°C 35.4°F1.9°C 91% 3.0 mph E4.8 kmh E 9.0 mph14.5 kmh 29.97 in1014.9 mb 0.03 in0.8 mm 0.00 in0.0 mm 0.04 in1.0 mm
01:10 AM 37.8°F3.2°C 35.4°F1.9°C 91% Calm Calm 9.0 mph14.5 kmh 29.97 in1014.9 mb 0.03 in0.8 mm 0.00 in0.0 mm 0.04 in1.0 mm
01:05 AM 37.9°F3.3°C 35.5°F1.9°C 91% 3.0 mph E4.8 kmh E 9.0 mph14.5 kmh 29.97 in1014.9 mb 0.03 in0.8 mm 0.00 in0.0 mm 0.04 in1.0 mm
01:00 AM 37.9°F3.3°C 35.5°F1.9°C 91% 2.0 mph E3.2 kmh E 9.0 mph14.5 kmh 29.98 in1015.2 mb 0.03 in0.8 mm 0.01 in0.3 mm 0.04 in1.0 mm
12:55 AM 37.9°F3.3°C 35.5°F1.9°C 91% 5.0 mph E8.0 kmh E 6.0 mph9.7 kmh 29.98 in1015.2 mb 0.02 in0.5 mm 0.00 in0.0 mm 0.03 in0.8 mm
12:50 AM 37.9°F3.3°C 35.5°F1.9°C 91% 6.0 mph E9.7 kmh E 11.0 mph17.7 kmh 29.98 in1015.2 mb 0.03 in0.8 mm 0.12 in3.0 mm 0.03 in0.8 mm
12:45 AM 37.9°F3.3°C 35.5°F1.9°C 91% 5.0 mph E8.0 kmh E 11.0 mph17.7 kmh 29.98 in1015.2 mb 0.02 in0.5 mm 0.00 in0.0 mm 0.02 in0.5 mm
12:40 AM 37.9°F3.3°C 35.5°F1.9°C 91% 6.0 mph E9.7 kmh E 11.0 mph17.7 kmh 29.98 in1015.2 mb 0.02 in0.5 mm 0.00 in0.0 mm 0.02 in0.5 mm
12:35 AM 37.9°F3.3°C 35.5°F1.9°C 91% 6.0 mph E9.7 kmh E 11.0 mph17.7 kmh 29.98 in1015.2 mb 0.02 in0.5 mm 0.00 in0.0 mm 0.02 in0.5 mm
12:30 AM 37.9°F3.3°C 35.5°F1.9°C 91% 5.0 mph E8.0 kmh E 11.0 mph17.7 kmh 29.98 in1015.2 mb 0.02 in0.5 mm 0.00 in0.0 mm 0.02 in0.5 mm
12:25 AM 38.0°F3.3°C 35.6°F2.0°C 91% 3.0 mph E4.8 kmh E 7.0 mph11.3 kmh 29.99 in1015.6 mb 0.02 in0.5 mm 0.00 in0.0 mm 0.02 in0.5 mm
12:20 AM 38.0°F3.3°C 35.6°F2.0°C 91% 7.0 mph E11.3 kmh E 8.0 mph12.9 kmh 29.99 in1015.6 mb 0.02 in0.5 mm 0.00 in0.0 mm 0.02 in0.5 mm
12:15 AM 38.1°F3.4°C 35.7°F2.1°C 91% 2.0 mph ESE3.2 kmh ESE 8.0 mph12.9 kmh 29.99 in1015.6 mb 0.02 in0.5 mm 0.00 in0.0 mm 0.02 in0.5 mm
12:10 AM 38.1°F3.4°C 35.7°F2.1°C 91% 2.0 mph E3.2 kmh E 8.0 mph12.9 kmh 29.99 in1015.6 mb 0.02 in0.5 mm 0.00 in0.0 mm 0.02 in0.5 mm
12:05 AM 38.1°F3.4°C 35.7°F2.1°C 91% 3.0 mph ENE4.8 kmh ENE 7.0 mph11.3 kmh 30.00 in1015.9 mb 0.02 in0.5 mm 0.12 in3.0 mm 0.02 in0.5 mm
12:00 AM 38.1°F3.4°C 35.7°F2.1°C 91% 2.0 mph SE3.2 kmh SE 5.0 mph8.0 kmh 29.99 in1015.6 mb 0.01 in0.3 mm 0.00 in0.0 mm 0.01 in0.3 mm